createdAt,value
2017-01-21T00:00:17.171Z,38.85
2017-01-21T00:01:17.194Z,38.66
2017-01-21T00:02:17.223Z,38.85
2017-01-21T00:03:16.850Z,38.85
2017-01-21T00:04:17.271Z,38.95
2017-01-21T00:05:17.292Z,38.76
2017-01-21T00:06:17.320Z,38.66
2017-01-21T00:07:17.349Z,38.47
2017-01-21T00:08:17.385Z,38.47
2017-01-21T00:09:17.002Z,38.37
2017-01-21T00:10:17.031Z,38.64
2017-01-21T00:11:17.443Z,39.14
2017-01-21T00:12:17.082Z,39.12
2017-01-21T00:13:17.505Z,38.54
2017-01-21T00:14:17.530Z,38.95
2017-01-21T00:15:17.555Z,38.54
2017-01-21T00:16:17.583Z,38.64
2017-01-21T00:17:17.208Z,38.84
2017-01-21T00:18:17.239Z,38.74
2017-01-21T00:19:17.658Z,38.84
2017-01-21T00:20:17.286Z,38.26
2017-01-21T00:21:17.711Z,37.68
2017-01-21T00:22:17.736Z,37.97
2017-01-21T00:23:17.757Z,37.87
2017-01-21T00:24:17.797Z,37.97
2017-01-21T00:25:17.413Z,37.59
2017-01-21T00:26:17.834Z,37.97
2017-01-21T00:27:17.470Z,37.97
2017-01-21T00:28:17.488Z,37.77
2017-01-21T00:29:17.909Z,37.77
2017-01-21T00:30:17.566Z,37.97
2017-01-21T00:31:17.566Z,37.97
2017-01-21T00:32:17.595Z,37.68
2017-01-21T00:33:17.619Z,37.59
2017-01-21T00:34:17.640Z,37.77
2017-01-21T00:35:17.673Z,37.97
2017-01-21T00:36:17.698Z,37.87
2017-01-21T00:37:17.726Z,37.77
2017-01-21T00:38:17.747Z,37.87
2017-01-21T00:39:17.772Z,37.49
2017-01-21T00:40:17.796Z,37.77
2017-01-21T00:41:17.825Z,37.49
2017-01-21T00:42:17.849Z,37.87
2017-01-21T00:43:18.270Z,37.87
2017-01-21T00:44:18.294Z,37.49
2017-01-21T00:45:17.923Z,37.59
2017-01-21T00:46:18.343Z,37.3
2017-01-21T00:47:18.372Z,37.59
2017-01-21T00:48:18.396Z,37.49
2017-01-21T00:49:18.421Z,37.59
2017-01-21T00:50:18.449Z,37.87
2017-01-21T00:51:18.082Z,37.59
2017-01-21T00:52:18.102Z,37.59
2017-01-21T00:53:18.519Z,37.37
2017-01-21T00:54:18.151Z,37.59
2017-01-21T00:55:18.177Z,37.49
2017-01-21T00:56:18.205Z,37.37
2017-01-21T00:57:18.626Z,37.49
2017-01-21T00:58:18.254Z,37.57
2017-01-21T00:59:18.699Z,37.49
2017-01-21T01:00:18.699Z,37.39
2017-01-21T01:01:18.328Z,37.68
2017-01-21T01:02:18.377Z,37.47
2017-01-21T01:03:18.777Z,37.66
2017-01-21T01:04:18.802Z,37.57
2017-01-21T01:05:18.431Z,37.57
2017-01-21T01:06:18.852Z,37.57
2017-01-21T01:07:18.877Z,37.47
2017-01-21T01:08:18.509Z,37.66
2017-01-21T01:09:18.930Z,37.66
2017-01-21T01:10:18.558Z,37.47
2017-01-21T01:11:18.979Z,37.57
2017-01-21T01:12:18.609Z,37.59
2017-01-21T01:13:18.636Z,37.18
2017-01-21T01:14:18.661Z,37.66
2017-01-21T01:15:19.077Z,37.47
2017-01-21T01:16:18.710Z,37.66
2017-01-21T01:17:18.734Z,37.47
2017-01-21T01:18:18.759Z,37.47
2017-01-21T01:19:18.800Z,37.47
2017-01-21T01:20:19.209Z,37.37
2017-01-21T01:21:18.839Z,37.27
2017-01-21T01:22:18.867Z,37.37
2017-01-21T01:23:18.886Z,37.37
2017-01-21T01:24:19.303Z,37.37
2017-01-21T01:25:19.328Z,37.27
2017-01-21T01:26:19.364Z,37.18
2017-01-21T01:27:19.385Z,37.08
2017-01-21T01:28:19.410Z,37.08
2017-01-21T01:29:19.039Z,37.18
2017-01-21T01:30:19.459Z,37.27
2017-01-21T01:31:19.093Z,37.37
2017-01-21T01:32:19.503Z,36.99
2017-01-21T01:33:19.538Z,37.08
2017-01-21T01:34:19.166Z,37.08
2017-01-21T01:35:19.579Z,37.27
2017-01-21T01:36:19.612Z,37.18
2017-01-21T01:37:19.636Z,37.08
2017-01-21T01:38:19.658Z,36.99
2017-01-21T01:39:19.690Z,37.18
2017-01-21T01:40:19.323Z,37.18
2017-01-21T01:41:19.732Z,37.18
2017-01-21T01:42:19.756Z,37.27
2017-01-21T01:43:19.789Z,37.08
2017-01-21T01:44:19.814Z,37.18
2017-01-21T01:45:19.442Z,37.18
2017-01-21T01:46:19.467Z,36.99
2017-01-21T01:47:19.496Z,37.18
2017-01-21T01:48:19.521Z,36.99
2017-01-21T01:49:19.551Z,37.08
2017-01-21T01:50:19.970Z,37.27
2017-01-21T01:51:19.591Z,37.18
2017-01-21T01:52:19.619Z,37.08
2017-01-21T01:53:20.040Z,37.18
2017-01-21T01:54:19.673Z,37.27
2017-01-21T01:55:19.694Z,37.27
2017-01-21T01:56:20.123Z,37.27
2017-01-21T01:57:20.144Z,37.27
2017-01-21T01:58:20.172Z,36.99
2017-01-21T01:59:19.793Z,36.99
2017-01-21T02:00:19.822Z,36.99
2017-01-21T02:01:19.846Z,36.99
2017-01-21T02:02:20.267Z,37.47
2017-01-21T02:03:20.292Z,37.35
2017-01-21T02:04:20.317Z,37.47
2017-01-21T02:05:20.341Z,37.26
2017-01-21T02:06:19.973Z,36.88
2017-01-21T02:07:20.394Z,37.35
2017-01-21T02:08:20.019Z,37.37
2017-01-21T02:09:20.053Z,37.35
2017-01-21T02:10:20.073Z,37.45
2017-01-21T02:11:20.102Z,37.45
2017-01-21T02:12:20.123Z,36.88
2017-01-21T02:13:20.552Z,36.88
2017-01-21T02:14:20.568Z,36.99
2017-01-21T02:15:20.593Z,37.08
2017-01-21T02:16:20.234Z,37.07
2017-01-21T02:17:20.246Z,36.97
2017-01-21T02:18:20.672Z,36.99
2017-01-21T02:19:20.300Z,36.97
2017-01-21T02:20:20.329Z,36.78
2017-01-21T02:21:20.765Z,36.88
2017-01-21T02:22:20.774Z,36.97
2017-01-21T02:23:20.404Z,36.97
2017-01-21T02:24:20.428Z,36.97
2017-01-21T02:25:20.458Z,36.97
2017-01-21T02:26:20.465Z,36.88
2017-01-21T02:27:20.899Z,36.97
2017-01-21T02:28:20.527Z,36.88
2017-01-21T02:29:20.946Z,37.16
2017-01-21T02:30:20.969Z,37.16
2017-01-21T02:31:20.997Z,36.88
2017-01-21T02:32:20.620Z,36.97
2017-01-21T02:33:20.654Z,36.97
2017-01-21T02:34:20.676Z,37.07
2017-01-21T02:35:20.705Z,37.07
2017-01-21T02:36:21.129Z,37.07
2017-01-21T02:37:21.149Z,36.97
2017-01-21T02:38:20.776Z,37.07
2017-01-21T02:39:21.195Z,36.78
2017-01-21T02:40:20.828Z,36.88
2017-01-21T02:41:20.848Z,36.97
2017-01-21T02:42:21.273Z,37.16
2017-01-21T02:43:21.298Z,36.97
2017-01-21T02:44:20.923Z,37.26
2017-01-21T02:45:21.348Z,36.88
2017-01-21T02:46:20.977Z,36.88
2017-01-21T02:47:21.405Z,36.88
2017-01-21T02:48:21.438Z,36.88
2017-01-21T02:49:21.054Z,36.78
2017-01-21T02:50:21.475Z,37.16
2017-01-21T02:51:21.504Z,36.4
2017-01-21T02:52:21.133Z,36.58
2017-01-21T02:53:21.154Z,36.97
2017-01-21T02:54:21.575Z,36.88
2017-01-21T02:55:21.595Z,36.78
2017-01-21T02:56:21.224Z,36.78
2017-01-21T02:57:21.649Z,36.78
2017-01-21T02:58:21.282Z,36.78
2017-01-21T02:59:21.699Z,36.78
2017-01-21T03:00:21.327Z,37.07
2017-01-21T03:01:21.752Z,36.49
2017-01-21T03:02:21.773Z,36.68
2017-01-21T03:03:21.401Z,36.68
2017-01-21T03:04:21.426Z,36.68
2017-01-21T03:05:21.851Z,36.68
2017-01-21T03:06:21.482Z,36.78
2017-01-21T03:07:21.537Z,36.88
2017-01-21T03:08:21.925Z,36.88
2017-01-21T03:09:21.554Z,36.88
2017-01-21T03:10:21.575Z,36.58
2017-01-21T03:11:21.603Z,36.58
2017-01-21T03:12:21.628Z,36.58
2017-01-21T03:13:22.057Z,36.68
2017-01-21T03:14:22.074Z,36.68
2017-01-21T03:15:22.099Z,36.49
2017-01-21T03:16:22.124Z,36.38
2017-01-21T03:17:21.752Z,36.4
2017-01-21T03:18:21.777Z,36.4
2017-01-21T03:19:21.801Z,36.47
2017-01-21T03:20:22.222Z,36.49
2017-01-21T03:21:22.245Z,36.68
2017-01-21T03:22:22.280Z,36.38
2017-01-21T03:23:21.906Z,36.66
2017-01-21T03:24:21.933Z,36.38
2017-01-21T03:25:21.955Z,36.58
2017-01-21T03:26:22.371Z,36.68
2017-01-21T03:27:22.400Z,36.58
2017-01-21T03:28:22.424Z,36.18
2017-01-21T03:29:22.045Z,36.58
2017-01-21T03:30:22.074Z,36.38
2017-01-21T03:31:22.103Z,36.47
2017-01-21T03:32:22.524Z,36.38
2017-01-21T03:33:22.152Z,36.47
2017-01-21T03:34:22.177Z,36.57
2017-01-21T03:35:22.197Z,36.47
2017-01-21T03:36:22.226Z,36.47
2017-01-21T03:37:22.647Z,36.57
2017-01-21T03:38:22.276Z,36.47
2017-01-21T03:39:22.300Z,36.47
2017-01-21T03:40:22.721Z,36.57
2017-01-21T03:41:22.349Z,36.18
2017-01-21T03:42:22.767Z,36.18
2017-01-21T03:43:22.795Z,36.57
2017-01-21T03:44:22.424Z,36.57
2017-01-21T03:45:22.449Z,36.57
2017-01-21T03:46:22.474Z,36.28
2017-01-21T03:47:22.499Z,36.18
2017-01-21T03:48:22.920Z,36.18
2017-01-21T03:49:22.948Z,36.66
2017-01-21T03:50:22.974Z,36.28
2017-01-21T03:51:22.993Z,36.47
2017-01-21T03:52:22.622Z,36.18
2017-01-21T03:53:22.647Z,36.66
2017-01-21T03:54:23.064Z,36.47
2017-01-21T03:55:22.696Z,36.66
2017-01-21T03:56:23.113Z,36.47
2017-01-21T03:57:23.146Z,36.38
2017-01-21T03:58:22.770Z,36.47
2017-01-21T03:59:22.791Z,36.38
2017-01-21T04:00:23.220Z,36.38
2017-01-21T04:01:22.849Z,36.47
2017-01-21T04:02:22.865Z,36.66
2017-01-21T04:03:22.898Z,36.66
2017-01-21T04:04:23.319Z,36.66
2017-01-21T04:05:23.335Z,36.38
2017-01-21T04:06:22.968Z,36.47
2017-01-21T04:07:23.393Z,36.38
2017-01-21T04:08:23.423Z,36.47
2017-01-21T04:09:23.059Z,36.57
2017-01-21T04:10:23.067Z,36.38
2017-01-21T04:11:23.492Z,36.38
2017-01-21T04:12:23.517Z,36.28
2017-01-21T04:13:23.145Z,36.38
2017-01-21T04:14:23.566Z,36.38
2017-01-21T04:15:23.195Z,36.47
2017-01-21T04:16:23.620Z,36.38
2017-01-21T04:17:23.638Z,36.38
2017-01-21T04:18:23.269Z,36.47
2017-01-21T04:19:23.293Z,36.47
2017-01-21T04:20:23.707Z,36.38
2017-01-21T04:21:23.341Z,36.28
2017-01-21T04:22:23.368Z,36.38
2017-01-21T04:23:23.781Z,36.47
2017-01-21T04:24:23.417Z,36.28
2017-01-21T04:25:23.835Z,36.18
2017-01-21T04:26:23.859Z,36.47
2017-01-21T04:27:23.883Z,36.18
2017-01-21T04:28:23.908Z,36.28
2017-01-21T04:29:23.537Z,36.28
2017-01-21T04:30:23.566Z,36.47
2017-01-21T04:31:23.982Z,36.47
2017-01-21T04:32:24.007Z,36.18
2017-01-21T04:33:23.638Z,36.18
2017-01-21T04:34:24.056Z,36.28
2017-01-21T04:35:24.081Z,36.38
2017-01-21T04:36:24.106Z,36.28
2017-01-21T04:37:24.131Z,36.18
2017-01-21T04:38:23.760Z,36.38
2017-01-21T04:39:24.178Z,36.38
2017-01-21T04:40:24.205Z,36.28
2017-01-21T04:41:23.838Z,36.18
2017-01-21T04:42:23.858Z,36.18
2017-01-21T04:43:24.279Z,36.38
2017-01-21T04:44:23.911Z,36.47
2017-01-21T04:45:24.328Z,36.18
2017-01-21T04:46:24.353Z,36.38
2017-01-21T04:47:24.379Z,36.36
2017-01-21T04:48:24.403Z,36.28
2017-01-21T04:49:24.034Z,36.38
2017-01-21T04:50:24.448Z,36.38
2017-01-21T04:51:24.072Z,36.36
2017-01-21T04:52:24.105Z,36.36
2017-01-21T04:53:24.530Z,36.28
2017-01-21T04:54:24.555Z,36.07
2017-01-21T04:55:24.179Z,36.16
2017-01-21T04:56:24.204Z,36.07
2017-01-21T04:57:24.626Z,36.26
2017-01-21T04:58:24.647Z,36.36
2017-01-21T04:59:24.274Z,36.28
2017-01-21T05:00:24.699Z,36.26
2017-01-21T05:01:24.719Z,36.28
2017-01-21T05:02:24.353Z,36.16
2017-01-21T05:03:24.774Z,36.26
2017-01-21T05:04:24.801Z,36.07
2017-01-21T05:05:24.819Z,36.36
2017-01-21T05:06:24.848Z,36.65
2017-01-21T05:07:24.474Z,36.74
2017-01-21T05:08:24.888Z,36.74
2017-01-21T05:09:24.523Z,36.36
2017-01-21T05:10:24.947Z,36.36
2017-01-21T05:11:24.577Z,36.47
2017-01-21T05:12:24.996Z,36.36
2017-01-21T05:13:24.623Z,36.65
2017-01-21T05:14:24.645Z,36.57
2017-01-21T05:15:24.670Z,36.57
2017-01-21T05:16:24.701Z,36.74
2017-01-21T05:17:25.116Z,36.55
2017-01-21T05:18:24.744Z,36.74
2017-01-21T05:19:24.769Z,36.55
2017-01-21T05:20:25.186Z,36.36
2017-01-21T05:21:25.214Z,36.55
2017-01-21T05:22:25.239Z,36.84
2017-01-21T05:23:24.868Z,37.05
2017-01-21T05:24:24.891Z,37.41
2017-01-21T05:25:24.913Z,37.51
2017-01-21T05:26:24.938Z,37.32
2017-01-21T05:27:24.967Z,37.13
2017-01-21T05:28:24.987Z,37.24
2017-01-21T05:29:25.420Z,37.22
2017-01-21T05:30:25.440Z,37.22
2017-01-21T05:31:25.457Z,37.13
2017-01-21T05:32:25.086Z,36.95
2017-01-21T05:33:25.511Z,37.34
2017-01-21T05:34:25.144Z,37.13
2017-01-21T05:35:25.160Z,37.34
2017-01-21T05:36:25.593Z,37.34
2017-01-21T05:37:25.214Z,37.24
2017-01-21T05:38:25.634Z,37.15
2017-01-21T05:39:25.263Z,36.95
2017-01-21T05:40:25.284Z,36.76
2017-01-21T05:41:25.304Z,37.05
2017-01-21T05:42:25.329Z,37.05
2017-01-21T05:43:25.358Z,36.76
2017-01-21T05:44:25.783Z,37.05
2017-01-21T05:45:25.407Z,36.86
2017-01-21T05:46:25.828Z,36.57
2017-01-21T05:47:25.457Z,36.38
2017-01-21T05:48:25.481Z,36.57
2017-01-21T05:49:25.507Z,36.47
2017-01-21T05:50:25.532Z,36.66
2017-01-21T05:51:25.556Z,36.38
2017-01-21T05:52:25.972Z,36.3
2017-01-21T05:53:26.001Z,36.3
2017-01-21T05:54:26.030Z,36.3
2017-01-21T05:55:25.650Z,36.4
2017-01-21T05:56:26.075Z,36.2
2017-01-21T05:57:25.704Z,36.3
2017-01-21T05:58:25.733Z,36.01
2017-01-21T05:59:26.150Z,36.2
2017-01-21T06:00:26.174Z,35.91
2017-01-21T06:01:26.190Z,36.01
2017-01-21T06:02:26.220Z,36.2
2017-01-21T06:03:26.256Z,35.82
2017-01-21T06:04:26.273Z,36.11
2017-01-21T06:05:26.293Z,36.2
2017-01-21T06:06:26.322Z,35.91
2017-01-21T06:07:26.344Z,35.91
2017-01-21T06:08:25.980Z,36.2
2017-01-21T06:09:26.004Z,35.63
2017-01-21T06:10:26.021Z,35.63
2017-01-21T06:11:26.049Z,35.34
2017-01-21T06:12:26.470Z,35.53
2017-01-21T06:13:26.095Z,35.72
2017-01-21T06:14:26.516Z,35.63
2017-01-21T06:15:26.545Z,35.55
2017-01-21T06:16:26.570Z,35.55
2017-01-21T06:17:26.597Z,35.72
2017-01-21T06:18:26.619Z,35.74
2017-01-21T06:19:26.643Z,35.36
2017-01-21T06:20:26.272Z,35.55
2017-01-21T06:21:26.697Z,35.74
2017-01-21T06:22:26.326Z,35.74
2017-01-21T06:23:26.743Z,35.64
2017-01-21T06:24:26.371Z,35.64
2017-01-21T06:25:26.396Z,35.45
2017-01-21T06:26:26.421Z,35.55
2017-01-21T06:27:26.845Z,35.55
2017-01-21T06:28:26.862Z,35.55
2017-01-21T06:29:26.886Z,35.74
2017-01-21T06:30:26.524Z,35.64
2017-01-21T06:31:26.548Z,35.45
2017-01-21T06:32:26.969Z,35.74
2017-01-21T06:33:26.598Z,35.45
2017-01-21T06:34:26.626Z,35.45
2017-01-21T06:35:27.041Z,35.45
2017-01-21T06:36:26.668Z,35.83
2017-01-21T06:37:26.696Z,35.83
2017-01-21T06:38:26.721Z,35.83
2017-01-21T06:39:26.746Z,35.06
2017-01-21T06:40:26.770Z,35.36
2017-01-21T06:41:27.191Z,35.16
2017-01-21T06:42:26.812Z,35.16
2017-01-21T06:43:27.237Z,34.97
2017-01-21T06:44:27.257Z,35.36
2017-01-21T06:45:26.922Z,34.97
2017-01-21T06:46:27.314Z,35.26
2017-01-21T06:47:27.339Z,35.16
2017-01-21T06:48:26.972Z,35.16
2017-01-21T06:49:26.996Z,35.06
2017-01-21T06:50:27.422Z,35.26
2017-01-21T06:51:27.451Z,35.16
2017-01-21T06:52:27.073Z,34.88
2017-01-21T06:53:27.492Z,34.88
2017-01-21T06:54:27.516Z,34.78
2017-01-21T06:55:27.540Z,34.68
2017-01-21T06:56:27.165Z,35.16
2017-01-21T06:57:27.194Z,34.88
2017-01-21T06:58:27.623Z,34.88
2017-01-21T06:59:27.639Z,35.06
2017-01-21T07:00:27.264Z,34.97
2017-01-21T07:01:27.293Z,34.78
2017-01-21T07:02:27.733Z,34.88
2017-01-21T07:03:27.742Z,34.68
2017-01-21T07:04:27.367Z,34.78
2017-01-21T07:05:27.392Z,34.78
2017-01-21T07:06:27.420Z,34.97
2017-01-21T07:07:27.841Z,34.78
2017-01-21T07:08:27.466Z,34.78
2017-01-21T07:09:27.495Z,34.88
2017-01-21T07:10:27.912Z,34.97
2017-01-21T07:11:27.940Z,34.68
2017-01-21T07:12:27.568Z,34.78
2017-01-21T07:13:27.593Z,34.78
2017-01-21T07:14:27.618Z,34.78
2017-01-21T07:15:28.039Z,35.06
2017-01-21T07:16:28.067Z,34.68
2017-01-21T07:17:27.696Z,34.88
2017-01-21T07:18:28.121Z,34.78
2017-01-21T07:19:28.142Z,35.06
2017-01-21T07:20:28.214Z,34.88
2017-01-21T07:21:28.187Z,34.88
2017-01-21T07:22:27.820Z,35.06
2017-01-21T07:23:28.240Z,34.68
2017-01-21T07:24:27.869Z,35.16
2017-01-21T07:25:28.290Z,34.88
2017-01-21T07:26:28.314Z,34.68
2017-01-21T07:27:27.943Z,34.89
2017-01-21T07:28:27.965Z,35.06
2017-01-21T07:29:28.393Z,34.59
2017-01-21T07:30:28.415Z,35.16
2017-01-21T07:31:28.039Z,34.97
2017-01-21T07:32:28.475Z,34.97
2017-01-21T07:33:28.095Z,35.06
2017-01-21T07:34:28.520Z,35.06
2017-01-21T07:35:28.541Z,34.78
2017-01-21T07:36:28.170Z,34.88
2017-01-21T07:37:28.591Z,35.06
2017-01-21T07:38:28.615Z,34.88
2017-01-21T07:39:28.644Z,34.39
2017-01-21T07:40:28.664Z,34.99
2017-01-21T07:41:28.293Z,34.99
2017-01-21T07:42:28.722Z,34.99
2017-01-21T07:43:28.742Z,34.51
2017-01-21T07:44:28.375Z,34.97
2017-01-21T07:45:28.792Z,35.06
2017-01-21T07:46:28.817Z,35.06
2017-01-21T07:47:28.845Z,34.88
2017-01-21T07:48:28.866Z,34.88
2017-01-21T07:49:28.890Z,34.88
2017-01-21T07:50:28.543Z,34.59
2017-01-21T07:51:28.544Z,34.3
2017-01-21T07:52:28.965Z,34.59
2017-01-21T07:53:28.998Z,34.97
2017-01-21T07:54:28.623Z,34.89
2017-01-21T07:55:28.647Z,34.88
2017-01-21T07:56:29.063Z,34.97
2017-01-21T07:57:28.696Z,34.68
2017-01-21T07:58:28.721Z,34.88
2017-01-21T07:59:28.746Z,34.88
2017-01-21T08:00:28.790Z,34.78
2017-01-21T08:01:28.796Z,34.88
2017-01-21T08:02:28.817Z,34.88
2017-01-21T08:03:29.242Z,34.78
2017-01-21T08:04:29.265Z,34.78
2017-01-21T08:05:29.294Z,34.78
2017-01-21T08:06:29.318Z,35.06
2017-01-21T08:07:28.947Z,34.59
2017-01-21T08:08:28.975Z,34.78
2017-01-21T08:09:28.996Z,34.88
2017-01-21T08:10:29.416Z,34.97
2017-01-21T08:11:29.440Z,34.59
2017-01-21T08:12:29.462Z,34.68
2017-01-21T08:13:29.495Z,34.49
2017-01-21T08:14:29.515Z,34.88
2017-01-21T08:15:29.147Z,34.97
2017-01-21T08:16:29.568Z,34.59
2017-01-21T08:17:29.584Z,34.68
2017-01-21T08:18:29.621Z,34.88
2017-01-21T08:19:29.642Z,34.68
2017-01-21T08:20:29.275Z,35.06
2017-01-21T08:21:29.291Z,34.78
2017-01-21T08:22:29.719Z,34.88
2017-01-21T08:23:29.740Z,34.78
2017-01-21T08:24:29.373Z,34.88
2017-01-21T08:25:29.797Z,34.78
2017-01-21T08:26:29.817Z,34.97
2017-01-21T08:27:29.443Z,34.88
2017-01-21T08:28:29.471Z,35.16
2017-01-21T08:29:29.496Z,34.78
2017-01-21T08:30:29.912Z,35.16
2017-01-21T08:31:29.936Z,34.97
2017-01-21T08:32:29.969Z,34.88
2017-01-21T08:33:29.990Z,34.88
2017-01-21T08:34:29.615Z,34.89
2017-01-21T08:35:29.648Z,34.22
2017-01-21T08:36:29.667Z,34.31
2017-01-21T08:37:30.089Z,34.22
2017-01-21T08:38:30.113Z,34.31
2017-01-21T08:39:30.145Z,34.22
2017-01-21T08:40:30.166Z,34.7
2017-01-21T08:41:30.195Z,34.7
2017-01-21T08:42:29.819Z,34.61
2017-01-21T08:43:29.836Z,34.61
2017-01-21T08:44:29.868Z,34.7
2017-01-21T08:45:30.301Z,34.7
2017-01-21T08:46:29.917Z,34.7
2017-01-21T08:47:30.339Z,34.8
2017-01-21T08:48:30.364Z,34.61
2017-01-21T08:49:30.396Z,34.51
2017-01-21T08:50:30.416Z,34.41
2017-01-21T08:51:30.045Z,34.31
2017-01-21T08:52:30.078Z,34.41
2017-01-21T08:53:30.095Z,34.31
2017-01-21T08:54:30.120Z,33.93
2017-01-21T08:55:30.544Z,34.03
2017-01-21T08:56:30.565Z,34.03
2017-01-21T08:57:30.590Z,34.03
2017-01-21T08:58:30.218Z,34.03
2017-01-21T08:59:30.651Z,33.93
2017-01-21T09:00:30.272Z,34.03
2017-01-21T09:01:30.693Z,34.22
2017-01-21T09:02:30.718Z,34.22
2017-01-21T09:03:30.349Z,34.31
2017-01-21T09:04:30.762Z,34.12
2017-01-21T09:05:30.395Z,34.12
2017-01-21T09:06:30.420Z,33.74
2017-01-21T09:07:30.843Z,33.84
2017-01-21T09:08:30.467Z,33.93
2017-01-21T09:09:30.895Z,34.12
2017-01-21T09:10:30.916Z,33.54
2017-01-21T09:11:30.948Z,33.36
2017-01-21T09:12:30.973Z,33.54
2017-01-21T09:13:30.598Z,33.54
2017-01-21T09:14:31.018Z,34.12
2017-01-21T09:15:31.047Z,33.84
2017-01-21T09:16:31.072Z,33.93
2017-01-21T09:17:31.097Z,33.93
2017-01-21T09:18:30.725Z,34.31
2017-01-21T09:19:30.754Z,33.93
2017-01-21T09:20:31.171Z,34.03
2017-01-21T09:21:30.791Z,34.22
2017-01-21T09:22:30.823Z,34.31
2017-01-21T09:23:31.244Z,34.22
2017-01-21T09:24:31.271Z,34.7
2017-01-21T09:26:30.931Z,34.7
2017-01-21T09:27:31.345Z,34.7
2017-01-21T09:28:31.372Z,34.41
2017-01-21T09:29:31.392Z,34.61
2017-01-21T09:30:31.416Z,34.8
2017-01-21T09:31:31.446Z,34.7
2017-01-21T09:32:31.476Z,34.89
2017-01-21T09:33:31.499Z,34.8
2017-01-21T09:34:31.120Z,34.8
2017-01-21T09:35:31.551Z,34.31
2017-01-21T09:36:31.177Z,34.43
2017-01-21T09:37:31.200Z,34.12
2017-01-21T09:38:31.622Z,33.95
2017-01-21T09:39:31.250Z,34.23
2017-01-21T09:40:31.667Z,34.43
2017-01-21T09:41:31.700Z,33.75
2017-01-21T09:42:31.324Z,33.37
2017-01-21T09:43:31.353Z,33.47
2017-01-21T09:44:31.373Z,32.98
2017-01-21T09:45:31.794Z,33.18
2017-01-21T09:46:31.427Z,32.79
2017-01-21T09:47:31.458Z,32.62
2017-01-21T09:48:31.476Z,32.62
2017-01-21T09:49:31.897Z,32.14
2017-01-21T09:50:31.553Z,32.14
2017-01-21T09:51:31.941Z,32.14
2017-01-21T09:52:31.974Z,32.14
2017-01-21T09:53:31.998Z,32.33
2017-01-21T09:54:31.631Z,32.04
2017-01-21T09:55:32.043Z,31.95
2017-01-21T09:56:31.681Z,31.85
2017-01-21T09:57:32.101Z,31.75
2017-01-21T09:58:31.733Z,31.77
2017-01-21T09:59:32.150Z,31.96
2017-01-21T10:00:32.191Z,32.06
2017-01-21T10:01:32.203Z,32.06
2017-01-21T10:02:31.831Z,32.15
2017-01-21T10:03:32.253Z,31.77
2017-01-21T10:04:31.884Z,32.44
2017-01-21T10:05:31.909Z,32.34
2017-01-21T10:06:32.330Z,32.25
2017-01-21T10:07:32.351Z,32.06
2017-01-21T10:08:31.992Z,32.44
2017-01-21T10:09:32.008Z,32.44
2017-01-21T10:10:32.433Z,32.44
2017-01-21T10:11:32.061Z,32.54
2017-01-21T10:12:32.077Z,32.73
2017-01-21T10:13:32.506Z,32.82
2017-01-21T10:14:32.142Z,33.12
2017-01-21T10:15:32.163Z,32.73
2017-01-21T10:16:32.188Z,33.12
2017-01-21T10:17:32.212Z,33.12
2017-01-21T10:18:32.637Z,33.31
2017-01-21T10:19:32.661Z,32.92
2017-01-21T10:20:32.286Z,33.02
2017-01-21T10:21:32.318Z,33.12
2017-01-21T10:22:32.735Z,33.21
2017-01-21T10:23:32.380Z,33.12
2017-01-21T10:24:32.789Z,33.31
2017-01-21T10:25:32.883Z,33.4
2017-01-21T10:26:32.447Z,33.5
2017-01-21T10:27:32.467Z,33.5
2017-01-21T10:28:32.496Z,33.4
2017-01-21T10:29:32.525Z,33.79
2017-01-21T10:30:32.550Z,33.59
2017-01-21T10:31:32.574Z,33.59
2017-01-21T10:32:32.999Z,33.5
2017-01-21T10:33:33.024Z,33.59
2017-01-21T10:34:33.049Z,33.79
2017-01-21T10:35:33.069Z,33.69
2017-01-21T10:36:33.098Z,33.59
2017-01-21T10:37:33.131Z,33.79
2017-01-21T10:38:33.151Z,33.79
2017-01-21T10:39:32.784Z,33.79
2017-01-21T10:40:33.249Z,33.69
2017-01-21T10:41:32.866Z,33.79
2017-01-21T10:42:32.859Z,33.79
2017-01-21T10:43:33.292Z,33.91
2017-01-21T10:44:33.337Z,33.98
2017-01-21T10:45:32.933Z,33.89
2017-01-21T10:46:32.962Z,33.4
2017-01-21T10:47:33.395Z,33.31
2017-01-21T10:48:33.411Z,33.12
2017-01-21T10:49:33.036Z,33.02
2017-01-21T10:50:33.065Z,33.12
2017-01-21T10:51:33.489Z,32.73
2017-01-21T10:52:33.119Z,32.92
2017-01-21T10:53:33.557Z,32.73
2017-01-21T10:54:33.567Z,32.92
2017-01-21T10:55:33.592Z,32.92
2017-01-21T10:56:33.621Z,33.59
2017-01-21T10:57:33.254Z,33.89
2017-01-21T10:58:33.671Z,33.98
2017-01-21T10:59:33.300Z,34.27
2017-01-21T11:00:33.726Z,33.79
2017-01-21T11:01:33.753Z,33.89
2017-01-21T11:02:33.782Z,33.89
2017-01-21T11:03:33.808Z,33.89
2017-01-21T11:04:33.432Z,33.79
2017-01-21T11:05:33.466Z,33.69
2017-01-21T11:06:33.883Z,33.89
2017-01-21T11:07:33.517Z,33.79
2017-01-21T11:08:33.932Z,33.4
2017-01-21T11:09:33.962Z,33.12
2017-01-21T11:10:33.586Z,33.02
2017-01-21T11:11:34.011Z,32.92
2017-01-21T11:12:33.641Z,32.92
2017-01-21T11:13:33.664Z,33.12
2017-01-21T11:14:33.694Z,32.64
2017-01-21T11:15:34.119Z,32.73
2017-01-21T11:16:34.179Z,32.92
2017-01-21T11:17:34.172Z,32.34
2017-01-21T11:18:34.197Z,32.25
2017-01-21T11:19:34.218Z,32.44
2017-01-21T11:20:33.851Z,32.34
2017-01-21T11:21:34.276Z,32.14
2017-01-21T11:22:33.904Z,31.85
2017-01-21T11:23:34.331Z,31.96
2017-01-21T11:24:34.354Z,32.14
2017-01-21T11:25:33.983Z,32.33
2017-01-21T11:26:34.408Z,32.14
2017-01-21T11:27:34.435Z,32.52
2017-01-21T11:28:34.454Z,32.33
2017-01-21T11:29:34.486Z,32.14
2017-01-21T11:30:34.511Z,32.64
2017-01-21T11:31:34.532Z,32.73
2017-01-21T11:32:34.577Z,32.64
2017-01-21T11:33:34.589Z,33.12
2017-01-21T11:34:34.215Z,32.92
2017-01-21T11:35:34.240Z,32.82
2017-01-21T11:36:34.273Z,33.02
2017-01-21T11:37:34.298Z,33.12
2017-01-21T11:38:34.723Z,32.92
2017-01-21T11:39:34.744Z,33.21
2017-01-21T11:40:34.776Z,32.92
2017-01-21T11:41:34.405Z,33.21
2017-01-21T11:42:34.432Z,33.12
2017-01-21T11:43:34.860Z,33.02
2017-01-21T11:44:34.480Z,33.21
2017-01-21T11:45:34.905Z,33.31
2017-01-21T11:46:34.538Z,32.73
2017-01-21T11:47:34.563Z,33.31
2017-01-21T11:48:34.988Z,33.31
2017-01-21T11:49:34.617Z,33.33
2017-01-21T11:50:35.034Z,33.12
2017-01-21T11:51:35.067Z,33.12
2017-01-21T11:52:34.695Z,33.42
2017-01-21T11:53:34.717Z,33.51
2017-01-21T11:54:34.749Z,33.51
2017-01-21T11:55:34.769Z,33.61
2017-01-21T11:56:35.194Z,33.61
2017-01-21T11:57:34.827Z,33.71
2017-01-21T11:58:35.252Z,33.91
2017-01-21T11:59:35.276Z,34
2017-01-21T12:00:34.945Z,33.71
2017-01-21T12:01:35.326Z,33.61
2017-01-21T12:02:35.359Z,34
2017-01-21T12:03:35.376Z,33.91
2017-01-21T12:04:35.413Z,33.91
2017-01-21T12:05:35.037Z,33.61
2017-01-21T12:06:35.062Z,33.91
2017-01-21T12:07:35.096Z,34
2017-01-21T12:08:35.116Z,34
2017-01-21T12:09:35.145Z,34.19
2017-01-21T12:10:35.168Z,34.29
2017-01-21T12:11:35.195Z,34.29
2017-01-21T12:12:35.223Z,33.91
2017-01-21T12:13:35.640Z,33.91
2017-01-21T12:14:35.277Z,34.86
2017-01-21T12:15:35.698Z,35.16
2017-01-21T12:16:35.727Z,35.06
2017-01-21T12:17:35.356Z,35.06
2017-01-21T12:18:35.381Z,34.96
2017-01-21T12:19:35.412Z,35.64
2017-01-21T12:20:35.430Z,35.93
2017-01-21T12:21:35.459Z,35.64
2017-01-21T12:22:35.483Z,35.71
2017-01-21T12:23:35.509Z,35.73
2017-01-21T12:24:35.938Z,35.73
2017-01-21T12:25:35.958Z,36.1
2017-01-21T12:26:35.991Z,36.19
2017-01-21T12:27:36.008Z,35.93
2017-01-21T12:28:36.043Z,36.39
2017-01-21T12:29:35.669Z,36.58
2017-01-21T12:30:36.090Z,36.77
2017-01-21T12:31:35.730Z,36.77
2017-01-21T12:32:36.147Z,36.77
2017-01-21T12:33:35.769Z,36.77
2017-01-21T12:34:35.806Z,37.16
2017-01-21T12:35:35.850Z,37.45
2017-01-21T12:36:35.855Z,37.45
2017-01-21T12:37:36.280Z,37.26
2017-01-21T12:38:36.301Z,37.35
2017-01-21T12:39:36.333Z,37.74
2017-01-21T12:40:35.963Z,37.64
2017-01-21T12:41:35.992Z,37.93
2017-01-21T12:42:36.012Z,37.83
2017-01-21T12:43:36.437Z,38.12
2017-01-21T12:44:36.474Z,37.83
2017-01-21T12:45:36.099Z,38.6
2017-01-21T12:46:36.520Z,38.79
2017-01-21T12:47:36.541Z,38.51
2017-01-21T12:48:36.178Z,38.41
2017-01-21T12:49:36.598Z,38.6
2017-01-21T12:50:36.231Z,38.79
2017-01-21T12:51:36.651Z,38.49
2017-01-21T12:52:36.277Z,38.68
2017-01-21T12:53:36.306Z,38.78
2017-01-21T12:54:36.331Z,38.59
2017-01-21T12:55:36.755Z,38.59